Marshman® Triathlon Presented by Kinetic PT

Race Date: Sunday September 20, 2009
Description: 1/4 Mile Swim~12.5 Mile Bike~2 Mile Run
Race Category: Triathlon
Total Entrants: 660

 PlaceNameCityStateRace AgeGenderDivisionClubTimeBib#
View 1 Haughton, Andrew State College PA 21 M M20-24 Penn State Triathlon Club 0:53:49 31
View 2 Snyder, Scoogie Doylestown PA 41 M M40-44 0:55:22 249
View 3 Faucette, James Perkasie PA 18 M M0-19 Penn State Triathlon Club 0:56:05 9
View 4 Jones, Rob West Chester PA 41 M M40-44 0:58:01 204
View 5 Stram, Troy Spring Grove PA 19 M M0-19 Penn State Triathlon Club 0:58:16 6
View 6 Buda, Matthew Altoona PA 21 M M20-24 Penn State Triathlon Club 0:58:55 37
View 7 Dreibelbis, Brian Downingtown PA 27 M M25-29 Downingtown Running Club 0:59:10 71
View 8 Stribrny, Dirk Malvern PA 41 M M40-44 0:59:42 260
View 9 Reid, James West Chester PA 48 M M45-49 0:59:50 303
View 10 Schiltz, Jason Reading PA 30 M M30-34 0:59:58 102
View 11 Garthwaite, Keith Malvern PA 43 M M40-44 West Chester Cycling Club 1:00:17 211
View 12 Lefebvre, Jon Pierre Wayne PA 40 M M40-44 1:00:28 236
View 13 Murphy, Jim Downingtown PA 21 M M20-24 1:00:47 27
View 14 Lin, Jon West Chester PA 30 M M30-34 1:01:01 127
View 15 Allen, Joel Gilbertsville PA 37 M M35-39 1:01:08 184
View 16 Botes, Eugene Parkesburg PA 29 M Clydesdale 1:01:17 383
View 17 Hurd, Christopher Dover DE 35 M M35-39 Team Bricks MultiSport 1:01:21 183
View 18 Palermo, Daniel Boothwyn PA 20 M M20-24 Penn State Triathlon Club 1:02:08 34
View 19 Stark, Maddie Chapel Hill NC 19 F F0-19 Penn State Triathlon Club 1:02:13 421
View 20 Fiedler, Chad Randolph NJ 20 M M20-24 Drexel University Triathlon Team 1:02:18 26
View 21 Fanelli, Richard Wayne PA 38 M M35-39 1:02:27 135
View 22 Fritsche, Todd Phoenixville PA 49 M M45-49 Downe Township School 8th Grade Afterglow 1:02:49 270
View 23 Randall, Leslie Royersford PA 40 F F40-44 1:02:56 635
View 24 Field, Chris Philadelphia PA 30 M M30-34 T3 1:03:06 104
View 25 Kerr, Midge Moorestown NJ 45 F F45-49 1:03:11 690
View 26 Carey, Shawn West Chester PA 44 M M40-44 1:03:13 247
View 27 Keefe, Dave West Chester PA 36 M Clydesdale 1:03:17 369
View 28 Francis, Michael Bridgeport PA 33 M M30-34 1:03:19 106
View 29 Kaufhold, Gerard Lancaster PA 40 M Relay 1:03:33 757
View 30 Markle, Jeffrey West Chester PA 45 M Clydesdale West Chester Cycling Club 1:03:35 364
View 31 Haile, Mike Downingtown PA 29 M M25-29 1:03:42 770
View 32 Morton, Spenser West Chester PA 22 M M20-24 Penn State Triathlon Club 1:03:42 30
View 33 Hartman, Kenrick State College PA 24 M M20-24 Penn State Triathlon Club 1:03:45 18
View 34 Macintyre, Michael Chester Springs PA 40 M M40-44 1:03:46 227
View 35 Parker, Kevin Radnor PA 45 M M45-49 1:04:28 292
View 36 Khan, Stephanie Oxford PA 45 F F45-49 DE Swim and Fitness TRI-Dawgs 1:04:29 673
View 37 Doerfler, Reed University Park PA 18 M M0-19 Penn State Triathlon Club 1:04:33 15
View 38 Mcconnell, Edward West Chester PA 29 M M25-29 1:04:34 63
View 39 Prosser, Greg Downingtown PA 35 M M35-39 Downingtown Running Club 1:04:39 160
View 40 Scanlon, Tiffany Baltimore MD 35 F F35-39 1:04:57 583
View 41 Siegel, Jeffrey West Chester PA 42 M M40-44 1:05:01 258
View 42 Stedman, Hansell Norristown, PA 52 M M50-54 1:05:01 313
View 43 Mize, Michael Downingtown PA 29 M M25-29 1:05:09 42
View 44 Thomas, James Allentown PA 41 M Clydesdale 1:05:12 399
View 45 Nicholson, John West Chester PA 52 M M50-54 1:05:21 319
View 46 Krafchick, Nicole Glen Mills PA 35 F F35-39 Rebel Runners 1:05:21 587
View 47 Duffy, William Philadelphia PA 42 M M40-44 1:05:54 254
View 48 Hoy, Sebastian Coatesville PA 46 M M45-49 1:05:56 300
View 49 Puharic, John Phoenixville PA 51 M M50-54 1:05:59 331
View 50 Mehl, John Chalfont PA 42 M M40-44 1:06:01 240
View 51 Hutchison, James Dover DE 53 M M50-54 Team Bricks MultiSport 1:06:04 326
View 52 Holmes, Rob Princeton NJ 63 M M60-64 1:06:06 342
View 53 Tryon, Bill Kennett Square PA 36 M M35-39 1:06:07 144
View 54 Lawrence, Andrea Wayne PA 44 F F40-44 1:06:09 638
View 55 Sheridan, Joe Dover PA 40 M M40-44 1:06:11 205
View 56 Rhine, Patrick Philadelphia PA 28 M M25-29 1:06:21 46
View 57 Gossow, Richard Wayne PA 45 M M45-49 1:06:23 305
View 58 Beck, Robert East Fallowfield PA 43 M M40-44 1:06:25 259
View 59 Deily, Megan Quakertown PA 34 F F30-34 1:06:25 517
View 60 Hill, Josh Newark DE 21 M M20-24 1:06:27 39
View 61 Dawson, Bill West Chester PA 58 M M55-59 1:06:55 333
View 62 Mcguigan, Daniel Phoenixville PA 23 M M20-24 1:06:56 40
View 63 Ridgeman, Mike Lewsiburg PA 34 M M30-34 Penn State Triathlon Club 1:07:09 129
View 64 West, Jason Quakertown PA 16 M M0-19 1:07:13 13
View 65 Mcginty, Meghan Coopersburg PA 20 F F20-24 Penn State Triathlon Club 1:07:13 449
View 66 Day, Christine Paoli PA 37 F F35-39 1:07:27 573
View 67 Devenney, Mike Chester Springs PA 35 M M35-39 1:07:31 185
View 68 Patterson, Jesse Wayne PA 34 M M30-34 1:07:37 90
View 69 Bice, David West Chester PA 43 M M40-44 1:07:54 242
View 70 Horvath, Kyle Catasauqua PA 28 M M25-29 1:08:02 73
View 71 Henninger, David Newark DE 26 M M25-29 1:08:12 54
View 72 Reynolds, Michael Glen Mills PA 40 M M40-44 Paramount Adventure Multi-Sport Club 1:08:28 241
View 73 Haimowitz, Thomas Philadelphia PA 30 M M30-34 1:08:34 125
View 74 Huck, Nicholas Morristown NJ 27 M M25-29 1:08:40 65
View 75 Hastings, Katharine --- F F0-19 DE Swim and Fitness TRI-Dawgs 1:08:43 419
View 76 Delone, Michael Downingtown PA 40 M M40-44 1:08:43 237
View 77 Mcgee, Brian Wilmington DE 34 M M30-34 1:08:46 84
View 78 Orsino, Gina North Wales PA 37 F F35-39 1:08:55 565
View 79 Porfido, Chip Malven PA 53 M M50-54 1:09:03 321
View 80 Lemmy, Simon Downingtown PA 39 M M35-39 1:09:07 148
View 81 Dawson, Bill West Chester PA 34 M M30-34 1:09:09 123
View 82 Zier, Jake West Chester PA 33 M M30-34 1:09:10 130
View 83 Brady, Daniel Douglassville PA 41 M M40-44 1:09:12 261
View 84 Kelly, Stephen West Chester PA 45 M M45-49 1:09:15 280
View 85 Jester, Deron West Chester PA 37 M M35-39 West Chester Cycling Club 1:09:33 173
View 86 Sanders, Brett Downingtown PA 37 M M35-39 1:09:34 147
View 87 Riggs, Wil Oak Ridge NJ 29 M M25-29 1:09:46 69
View 88 Ball, Christopher Philadelphia PA 38 M M35-39 1:09:47 159
View 89 Reedell, Scott Feasterville PA 34 M M30-34 Philadelphia Tri Club 1:09:58 85
View 90 Kallmeyer, Mike Radnor PA 49 M M45-49 1:09:59 288
View 91 Corwin, Chris Wayne PA 36 M Clydesdale 1:10:15 403
View 92 Silvera, David Bryn Mawr PA 45 M M45-49 1:10:21 308
View 93 Mchoul, David Downingtown PA 41 M M40-44 1:10:33 224
View 94 Garner, Paul West Chester PA 43 M M40-44 1:10:38 216
View 95 Harris, Daniel Downingtown PA 29 M M25-29 1:10:46 56
View 96 Barth, Lori Blandon PA 31 F F30-34 1:10:54 496
View 97 Campbell, Tara West Chester PA 38 F F35-39 1:10:56 541
View 98 Mcaleer, David West Chester PA 38 M M35-39 1:11:01 182
View 99 Kramer, Andy St. Davids PA 46 M M45-49 1:11:15 302
View 100 Wallace, Steven Pennsauken NJ 25 M Clydesdale 1:11:15 368
View 101 Mulcahy, John Chester Springs PA 43 M M40-44 1:11:15 212
View 102 Haughton, Kathleen West Chester PA 19 F F0-19 Penn State Triathlon Club 1:11:17 415
View 103 Russell, Steve Butler PA 53 M M50-54 1:11:18 324
View 104 Morgan, Victoria Downingtown PA 41 F Relay 1:11:19 756
View 105 Niemiec, David Philadelphia PA 28 M M25-29 1:11:20 49
View 106 Day, Galen Paoli PA 39 M M35-39 1:11:20 178
View 107 Burd, Russell East Greenville PA 45 M M45-49 1:11:22 263
View 108 Mooney, Ted Villanova PA 40 M M40-44 1:11:28 246
View 109 Troncoso, Thomas Lancaster PA 42 M M40-44 1:11:30 245
View 110 Cieszkowski, Robert Langhorne PA 39 M M35-39 1:11:31 146
View 111 Matarazzo, Madison --- F F0-19 1:11:35 420
View 112 Schasberger, Britta Norristown PA 39 F F35-39 1:11:38 579
View 113 Nelson, Robert Philadelphia NJ 27 M M25-29 Philadelphia Tri Club 1:11:39 50
View 114 Pickard, Patty West Chester PA 46 F F45-49 1:12:00 685
View 115 Nolt, Josh New Holland PA 26 M M25-29 1:12:01 48
View 116 Tweedie, Catherine Philadelphia PA 28 F F25-29 1:12:01 455
View 117 Swinehart, Alexis West Chester PA 33 F F30-34 West Chester Cycling Club 1:12:10 503
View 118 Richards, Diane Royersford PA 38 F F35-39 Spring Valley YMCA Tri Club 1:12:12 585
View 119 Vanic, Kevin West Chester PA 37 M M35-39 1:12:12 174
View 120 Mahrlig, Steven Coatesville PA 45 M Clydesdale 1:12:23 398
View 121 Wagner, Paul Perkiomenville PA 39 M M35-39 North Penn YMCA Triathlon Club 1:12:26 168
View 122 Mcgee, Kristin West Chester PA 43 F F40-44 1:12:27 622
View 123 Elmer, Jim Reinholds PA 49 M M45-49 1:12:32 296
View 124 Herb, Ron Reading PA 51 M M50-54 1:12:40 316
View 125 Kukwa, Trey West Chester PA 25 M M25-29 1:12:43 60
View 126 Lawrence, Michael Pottstown PA 35 M M35-39 1:12:45 158
View 127 Errett, Douglas Phoenixville PA 36 M M35-39 1:12:47 198
View 128 Niewinski, Steve Phoenixville PA 39 M Clydesdale 1:12:56 409
View 129 Torres, Nicholas Philadelphia PA 39 M M35-39 1:12:58 191
View 130 Segner, Greg Pottstown PA 46 M M45-49 1:12:59 297
View 131 Grajewski, Matthew Pottstown PA 15 M M0-19 1:13:05 16
View 132 Kennedy, Eric Bethlehem PA 32 M M30-34 1:13:08 110
View 133 Lynch, Joe Philadelphia PA 30 M M30-34 Philadelphia Tri Club 1:13:10 116
View 134 Lonchar, Julia West Chester PA 24 F F20-24 West Chester Cycling Club 1:13:11 438
View 135 Fourney, Jill Downingtown PA 26 F F25-29 1:13:12 476
View 136 Wolven, Callie Baltimore MD 33 F F30-34 1:13:13 491
View 137 Williams, Dan West Chester PA 20 M M20-24 1:13:15 38
View 138 Wagner, Michael Doylestown PA 34 M M30-34 1:13:16 114
View 139 Furniss, Julia Lemoyne PA 26 F F25-29 1:13:20 472
View 140 Devries, Tom Exton PA 39 M M35-39 1:13:20 189
View 141 Mcbride, John Wynnewood PA 40 M Clydesdale 1:13:21 380
View 142 Kontra, David Phoenixville PA 43 M M40-44 1:13:25 207
View 143 Murray, Casey Wyndmoor PA 38 M M35-39 1:13:31 169
View 144 Kramer, John Chester Springs PA 45 M M45-49 1:13:34 268
View 145 Frees, Robb Phoenixville PA 47 M M45-49 1:13:35 266
View 146 Hubley, George West Chester PA 48 M Clydesdale 1:13:38 391
View 147 Sommermann, Jenn Freeport NY 45 F F45-49 1:13:38 643
View 148 Lyle, Trevor Harleysville PA 54 M M50-54 North Penn YMCA Triathlon Club 1:13:39 312
View 149 Wall, Mark Flourtown PA 40 M M40-44 1:13:40 238
View 150 De Gennaro, Onofrio Berwyn PA 35 M M35-39 1:13:53 142
View 151 Hansen, Michael Spring City PA 38 M M35-39 1:13:56 161
View 152 Luscombe, Dana Harleysville PA 46 M M45-49 1:14:01 295
View 153 Smith, Rebecca West Chester PA 47 F F45-49 1:14:12 692
View 154 Kelly, Brendan Downingtown PA 42 M M40-44 1:14:14 239
View 155 Correll, Gary Laureldale PA 66 M M65-69 1:14:14 346
View 156 Glinecke, Robert Pottstown PA 50 M Clydesdale 1:14:22 377
View 157 Schauer, Tim Mohnton PA 49 M M45-49 1:14:23 262
View 158 Blow, Jonathan Downingtown PA 25 M M25-29 1:14:23 66
View 159 Miller, Kelly Downingtown PA 41 F F40-44 1:14:26 640
View 160 Henninger, Elizabeth Newark DE 25 F F25-29 1:14:27 457
View 161 Ziegler, Tara Reinholds PA 32 F F30-34 1:14:29 524
View 162 Mell, Larry Lake Ariel PA 49 M M45-49 1:14:30 306
View 163 Kraft, Karl West Chester PA 37 M M35-39 1:14:31 163
View 164 Paulhamus, Marc Williamsport PA 22 M M20-24 Penn State Triathlon Club 1:14:33 33
View 165 Talese, Andrea Philadelphia PA 26 F F25-29 1:14:34 466
View 166 Niewinski, Katie Phoenixville PA 30 F F30-34 1:14:40 523
View 167 Weller, David Gilbertsville PA 44 M M40-44 1:14:41 232
View 168 Kreger, Bryan Pottstown PA 41 M M40-44 1:14:41 228
View 169 Adams, Matthew West Chester PA 28 M M25-29 1:14:43 72
View 170 Witmer, Tara Pasadena MD 28 F F25-29 1:14:43 478
View 171 Mccarthy, Mike West Chester PA 31 M M30-34 1:14:46 117
View 172 Busch, Debbie Zionsville PA 39 F F35-39 1:14:46 530
View 173 Bradley, Laura Rutledge PA 20 F F20-24 Penn State Triathlon Club 1:14:47 440
View 174 Amrein, John Downingtown PA 45 M M45-49 1:14:49 282
View 175 Smith, Stephen Laurel MD 36 M M35-39 1:14:50 149
View 176 Ambruch, Tara Hatfield PA 26 F F25-29 1:14:52 462
View 177 Schmack, Stu Montoursville PA 45 M M45-49 1:14:52 294
View 178 Bonner, Alfred (mac Malvern PA 41 M M40-44 1:14:54 220
View 179 Josephs, Ray Rose Valley PA 24 M M20-24 1:14:55 28
View 180 Wesley, Dean West Chester PA 50 M M50-54 1:14:58 329
View 181 Petroll, Philip West Chester PA 38 M M35-39 1:14:58 167
View 182 Dietrick, Kimberly Paoli PA 36 F F35-39 1:15:00 543
View 183 Gray, Tanya West Brandywine PA 43 F F40-44 Downingtown Running Club 1:15:04 602
View 184 Koningstein, Maurice Cheyney PA 49 M M45-49 T3 1:15:05 276
View 185 Parisi, Michelle Berwyn PA 41 F F40-44 1:15:06 592
View 186 Cowley, Shawn Broomall PA 31 M M30-34 1:15:15 87
View 187 Springuel, Francois Collegevilla PA 27 M M25-29 1:15:24 57
View 188 Kalucki, Tom Chester Springs PA 39 M M35-39 1:15:25 138
View 189 Holden, Joseph Jenkintown PA 36 M M35-39 1:15:26 186
View 190 Volpe, Mark Media PA 51 M M50-54 1:15:26 314
View 191 Kulesza, Ryan Bensalem PA 27 M M25-29 1:15:32 80
View 192 Wenzel, Michele Chadds Ford PA 46 F F45-49 1:15:34 662
View 193 Mcguigan, James Phoenixville PA 55 M M55-59 1:15:34 341
View 194 Oconnor, Michael Downingtown PA 32 M M30-34 1:15:36 98
View 195 Achuff, Jacquelyn Phoenixville PA 40 F F40-44 1:15:36 625
View 196 Sefick, Richard Johnstown PA 28 M M25-29 1:15:38 83
View 197 Oconnor, Susan Downingtown PA 34 F F30-34 1:15:38 505
View 198 Rudge, James East Berne NY 59 M M55-59 1:15:40 334
View 199 Hartley, Mike Abingdon MD 28 M M25-29 1:15:42 61
View 200 Trosino, Vince Ivyland PA 43 M M40-44 1:15:47 199
View 201 Glassman, Naomi Swarthmore PA 19 F F0-19 1:15:50 422
View 202 Richards, Jason Limerick PA 38 M M35-39 Spring Valley YMCA Tri Club 1:15:53 196
View 203 Muench, Theo Jessup MD 30 M M30-34 DC Triathlon Club 1:15:59 771
View 204 Braufman, Sue Philadelphia PA 40 F F40-44 1:16:04 619
View 205 Jester, Michelle Hunt Valley MD 23 F F20-24 1:16:07 437
View 206 Fernandes, Brian West Chester PA 40 M M40-44 1:16:14 215
View 207 Stauffer, Gregg Ephrata PA 24 M M20-24 1:16:22 23
View 208 Sell, Ryan Collegeville PA 28 M M25-29 1:16:22 53
View 209 Farmer, Douglas Willow Grove PA 31 M M30-34 1:16:29 96
View 210 Rosmus, Jens Yardley PA 38 M M35-39 1:16:30 141
View 211 Goodstein, Daniel Downingtown PA 42 M M40-44 1:16:31 233
View 212 Wagner, Jackie Perkiomenville PA 41 F F40-44 North Penn YMCA Triathlon Club 1:16:40 609
View 213 Mcconnell, Rebecca West Chester PA 27 F F25-29 1:16:45 467
View 214 Williams, Ty Downingtown PA 31 M M30-34 1:16:46 126
View 215 Woolley, Michael Paoli PA 46 M Clydesdale West Chester Cycling Club 1:16:51 378
View 216 Mullin, William Malvern PA 41 M M40-44 1:16:52 221
View 217 Kramer, Jake Chester Springs PA 16 M M0-19 1:16:53 2
View 218 Miller, Rosemarie Downingtown PA 40 F F40-44 1:16:54 596
View 219 Clark, Richard West Chester PA 45 M M45-49 1:16:57 311
View 220 Bram, Geoffrey Southampton PA 33 M M30-34 1:16:57 120
View 221 Muench, Nate Collegeville PA 33 M M30-34 1:16:59 95
View 222 Zangardi, Peter Collegeville PA 45 M M45-49 1:17:03 279
View 223 Valentino, Heather Pottstown PA 31 F F30-34 1:17:04 516
View 224 Mills, Steve Garnet Valley PA 45 M M45-49 1:17:13 284
View 225 Rizol, Jim Lansdale PA 46 M M45-49 Philadelphia Tri Club 1:17:14 269
View 226 Hatton, Craig West Chester PA 34 M M30-34 1:17:16 97
View 227 Swymer, Kaitlin Exton PA 26 F F25-29 1:17:22 477
View 228 Lowe, Jocelyn Kennett Sq PA 43 F F40-44 1:17:25 613
View 229 Johnson, Steven Downingtown PA 44 M M40-44 1:17:28 214
View 230 Mcgovern, James West Chester PA 34 M M30-34 1:17:28 91
View 231 Brady, Kevin Glenmoore PA 45 M M45-49 1:17:28 289
View 232 Glah, Reanin West Chester PA 16 F F0-19 1:17:35 425
View 233 Castillon, Arturo West Chester PA 43 M M40-44 1:17:36 253
View 234 Chamberlin, Scott Staten Island NY 26 M M25-29 1:17:39 67
View 235 Friel, Paul Phoenixville PA 40 M M40-44 1:17:41 229
View 236 Baur, Pauline West Chester PA 34 F F30-34 1:17:45 495
View 237 Besz, Corey King Of Prussia PA 37 M M35-39 1:17:52 180
View 238 Borrelli, Mike Kennett Square PA 31 M M30-34 1:17:52 107
View 239 Porter, Dan Chester Springs PA 42 M M40-44 1:17:56 208
View 240 Logue, Ronald Garnet Valley PA 44 M M40-44 1:17:56 222
View 241 Howells, Mark Sparks MD 31 M Clydesdale BT-Maryland 1:17:57 371
View 242 Fitzmyer, Maryann Eagleville PA 31 F F30-34 1:18:04 514
View 243 Cromwell, Brent Holland PA 38 M M35-39 1:18:11 194
View 244 Kalucki, Missey Chester Springs PA 40 F F40-44 1:18:11 593
View 245 Smith, Stephen Hatfield PA 33 M M30-34 1:18:13 128
View 246 Donnelly, John Pottstown PA 36 M M35-39 1:18:24 179
View 247 Basilii, Mark Downingtown PA 43 M Clydesdale 1:18:24 363
View 248 Christian, Greg Audubon PA 44 M M40-44 1:18:31 235
View 249 Weeber, Phil West Chester PA 39 M Clydesdale 1:18:37 389
View 250 Kukwa, Rick West Chester PA 47 M M45-49 1:18:39 274
View 251 Kitchen, David Malvern PA 38 M M35-39 1:18:44 171
View 252 Karceski, Rachel Baltimore MD 33 F F30-34 1:18:45 490
View 253 Galligan, Ed Glenmoore PA 47 M M45-49 1:19:07 301
View 254 Bergan, Jane West Chester PA 44 F F40-44 1:19:10 591
View 255 Degan, William Newtown Square PA 35 M M35-39 1:19:13 143
View 256 Diguiseppe, Jim Phoenixville PA 44 M M40-44 1:19:15 218
View 257 Weaver, Heather Ashburn VA 31 F F30-34 1:19:16 493
View 258 Weller, Jonathan Gilbertsville PA 14 M M0-19 1:19:23 17
View 259 Daily, Kera Harrisburg PA 32 F F30-34 1:19:26 502
View 260 Szabo, David Doylestown PA 36 M M35-39 1:19:29 170
View 261 Murphy, Kevin Downingtown PA 29 M M25-29 Philadelphia Tri Club 1:19:33 68
View 262 Helm, Rick Doylestown PA 46 M M45-49 1:19:35 272
View 263 Marchese, Paul Basking Ridge NJ 54 M M50-54 1:19:41 332
View 264 Brim, Matthew Downingtown PA 24 M M20-24 1:19:42 29
View 265 Lake, Brian West Chester PA 39 M M35-39 1:19:42 188
View 266 Lemke, Derek Media PA 38 M M35-39 1:19:43 139
View 267 Allen, Scott West Chester PA 32 M M30-34 1:19:44 103
View 268 Weaver, Susan Towson MD 37 F F35-39 Baltimore Area Triathlon Club (BATC) 1:19:45 560
View 269 Gallagher, Kennedy --- F Relay 1:19:50 758
View 270 Stevenson, Tim Coatesville PA 42 M M40-44 1:19:52 243
View 271 Welsh, Rebecca Chadds Ford PA 43 F F40-44 1:19:53 608
View 272 Chen, Pavla Kennett Square PA 28 F F25-29 1:19:56 464
View 273 Heiss, Syd West Chester PA 48 F F45-49 1:19:58 654
View 274 Mcmenamin, Thomas Havertown PA 40 M M40-44 1:19:59 234
View 275 Dougherty, Dennis West Chester PA 42 M Clydesdale 1:20:01 402
View 276 Wright, Rob Media PA 42 M M40-44 1:20:01 219
View 277 Hunter, Andrew Fleetwood PA 49 M M45-49 1:20:08 283
View 278 Marinari, Brian Chester Springs PA 34 M M30-34 1:20:11 99
View 279 Pody, Denise Philadelphia PA 48 F F45-49 1:20:14 684
View 280 Hickson, Matthew West Chester PA 38 M Clydesdale 1:20:22 373
View 281 Chappelle, Eric Philadelphai PA 25 M M25-29 1:20:26 81
View 282 Tucker, Ben Princeton NJ 35 M M35-39 1:20:27 162
View 283 Ammon, Erik Fleetwood PA 38 M M35-39 1:20:27 166
View 284 Sanders, Brent Ft. Washington PA 35 M M35-39 1:20:35 197
View 285 Glah, Ken West Chester PA 46 M M45-49 1:20:36 765
View 286 Kyryk, Stephen Collegeville PA 52 M M50-54 1:20:41 323
View 287 Wilkerson, Kerri Philadelphia PA 48 F F45-49 1:20:43 683
View 288 Barclay, Robin Ephrata PA 50 M M50-54 1:20:43 320
View 289 Wolfe, Cari West Chester PA 39 F F35-39 1:20:49 544
View 290 Picardi, Kenn Pottstown PA 49 M M45-49 1:20:51 291
View 291 Kane, Jodi Hockessin DE 36 M M35-39 KAY Triathlon Club 1:20:51 175
View 292 Matte, Nathalie West Grove PA 41 F F40-44 1:20:51 634
View 293 Torello, Joseph Paoli PA 35 M M35-39 1:20:53 150
View 294 Noble, Mary Kate Chester Springs PA 32 F F30-34 1:20:55 486
View 295 Blum, Jordan West Chester PA 41 M M40-44 1:21:02 231
View 296 Jacobs, Jim West Chester PA 37 M M35-39 1:21:02 192
View 297 Miller, Nicole Towson MD 32 F F30-34 1:21:07 501
View 298 Allen, Kathy Gilbertsville PA 36 F F35-39 1:21:10 577
View 299 Kirschner, Diane West Chester PA 37 F F35-39 1:21:12 584
View 300 Boegly, Terese Audubon PA 45 F F45-49 1:21:16 650
View 301 Hamilton, Colin Downingtown PA 30 M M30-34 1:21:23 121
View 302 Mclaughlin, Heidi Lincoln University PA 36 F F35-39 1:21:25 537
View 303 Miller, David East Norriton PA 32 M M30-34 1:21:26 101
View 304 Lantzy, Robert New Hope PA 52 M M50-54 1:21:27 330
View 305 Bender, Zach Hatboro PA 19 M M0-19 1:21:34 1
View 306 Thomas, Cleo Owings Mills MD 24 F F20-24 1:21:35 427
View 307 Martinez, Melissa Palmerton PA 40 F F40-44 1:21:36 614
View 308 Kolimago, Carol Glenmoore PA 40 F F40-44 1:21:38 618
View 309 Ross, Kevin Wilmington DE 38 M M35-39 1:21:39 164
View 310 Donohue, Michael West Chester NJ 24 M M20-24 1:21:39 32
View 311 Nolan, James Philadelphia PA 30 M M30-34 1:21:43 105
View 312 Wilkerson, Jonathan Philadelphia PA 38 M Clydesdale 1:21:44 401
View 313 Romanoski, Andrew Berwyn PA 26 M M25-29 1:22:02 77
View 314 Riley, Kristen Downingtown PA 39 F F35-39 1:22:07 589
View 315 Caine, Michele Newtown Square PA 46 F F45-49 1:22:09 653
View 316 Hutchinson, Amy Lansdale PA 34 F F30-34 1:22:12 528
View 317 O'connor, Liz Morristown NJ 27 F F25-29 1:22:14 470
View 318 Scott, Melissa Kennett Square PA 43 F F40-44 1:22:21 601
View 319 Widdoss, Jeff Zionsville PA 41 M M40-44 1:22:23 244
View 320 Schwartz, Brian Philadelphia PA 31 M M30-34 1:22:26 100
View 321 Gabor, Laura Glenside PA 30 F F30-34 1:22:27 492
View 322 Chagares, Robert Malvern PA 52 M M50-54 1:22:36 328
View 323 Cubbler, Lauren Royersford PA 37 F F35-39 1:22:39 582
View 324 Chamberlin, Kelly Lowell MA 28 F F25-29 1:22:41 468
View 325 Wise, Greg Lancaster PA 25 M M25-29 1:22:46 74
View 326 Todd, Jessica Chester Springs PA 28 F F25-29 1:22:47 480
View 327 Reynolds, Ryan Aston PA 37 M M35-39 1:22:49 177
View 328 Bjork, Ann-sofie Philadelphia PA 37 F F35-39 1:22:50 576
View 329 Getway, Joseph Myerstown PA 34 M M30-34 1:22:52 132
View 330 Jambunathan, Ram Philadelphia PA 38 M M35-39 1:22:55 154
View 331 Alexander, Elisabeth Bedminster NJ 30 F F30-34 1:23:00 485
View 332 Dufresne, Leigh Ann Havertown PA 41 F F40-44 1:23:01 615
View 333 Ransom, Joe West Chester PA 33 M M30-34 1:23:09 108
View 334 Lamastra, Carl Gilbertsville PA 45 M M45-49 1:23:10 264
View 335 Potter, John Mechanicsburg PA 41 M Relay 1:23:10 755
View 336 Reedell, Megan Feasterville PA 31 F Athena Philadelphia Tri Club 1:23:11 719
View 337 Bloomfield, Melinda West Chester PA 49 F F45-49 West Chester Cycling Club 1:23:14 660
View 338 Derosa, Scarlett West Chester PA 35 F F35-39 1:23:15 547
View 339 Walsh, Melissa Glen Millsa PA 30 F F30-34 1:23:15 488
View 340 Westbrook, Kent Newtown PA 50 M Clydesdale Notring 1:23:22 382
View 341 Hansen, Theresa Spring City PA 39 F F35-39 1:23:25 548
View 342 Hunt, Lynne Wilmington DE 56 F F55-59 1:23:27 711
View 343 Martin Jr, John New Holland PA 46 M M45-49 1:23:30 267
View 344 Carella, Samuel Philadelphia PA 26 M M25-29 1:23:33 52
View 345 Martorano, Dennis Mamaroneck NY 39 M M35-39 1:23:39 172
View 346 Patek, Jackie Harleysville PA 35 F F35-39 1:23:40 555
View 347 Kinzeler, Patrick Coatesville PA 36 M Clydesdale 1:23:40 357
View 348 West, David Quakertown PA 49 M M45-49 1:23:44 307
View 349 Gillette, Maria Hockessin DE 45 F F45-49 KAY Triathlon Club 1:23:44 688
View 350 Gillespie, Bridget Pittsburgh PA 41 F Relay 1:23:57 763
View 351 Cook, Robert Wilmington DE 54 M M50-54 1:24:00 318
View 352 Mcnamara, Walt North Wales PA 33 M M30-34 1:24:04 124
View 353 Sabo, Andrew Royersford PA 39 M M35-39 1:24:05 157
View 354 Poche, Philip Radnor PA 43 M Clydesdale 1:24:06 359
View 355 Cleveland, Tony Downingtown PA 39 M Clydesdale 1:24:11 411
View 356 Glah, Caryle West Chester PA 58 F F55-59 1:24:15 714
View 357 Saunders, Sean Malvern PA 50 M M50-54 1:24:25 327
View 358 Evans, Lisa Norristown, PA 49 F F45-49 1:24:37 647
View 359 Muir, Elizabeth Malvern PA 47 F F45-49 1:24:44 649
View 360 Harvey, Tonda Norristown PA 47 F F45-49 1:24:44 646
View 361 Donnelly, Theresa Pottstown PA 38 F Relay 1:24:47 759
View 362 Lewis, Jennie Washington DC 23 F F20-24 1:24:50 443
View 363 Morrow, Sean Phoenixville PA 28 M M25-29 1:24:53 75
View 364 Godshall, Jake Harleysville PA 17 M M0-19 1:24:54 8
View 365 Marcase, Tammy York PA 35 F F35-39 1:24:56 564
View 366 Grajewski, Mike Pottstown PA 48 M Clydesdale 1:25:00 408
View 367 Ferguson, Marlena Exton PA 40 F F40-44 1:25:03 628
View 368 Graziani, Amy West Chester PA 51 F F50-54 1:25:05 696
View 369 Ambruch, Andrew Hatfield PA 29 M M25-29 1:25:13 58
View 370 Esparra, Jessica Stevens PA 20 F F20-24 1:25:14 436
View 371 Miller, Anne Swarthmore PA 22 F F20-24 1:25:16 433
View 372 Mccarthy, Lindsay West Chester PA 27 F F25-29 1:25:22 473
View 373 Mccabe, James Mount Laurel NJ 47 M M45-49 1:25:24 309
View 374 Shupp, Heather Ardmore PA 26 F F25-29 1:25:31 471
View 375 Posey, Brian Bear DE 42 M M40-44 1:25:41 250
View 376 Miller, Jennifer Philadelphia PA 40 F F40-44 1:25:41 636
View 377 Salamone, John Pottstown PA 49 M M45-49 1:25:52 298
View 378 Randell, Kyle Downingtown PA 26 M M25-29 1:25:53 78
View 379 Pieragostini, Melissa Mont Clare PA 31 F F30-34 1:26:05 513
View 380 Laverty, Michele Conshohocken PA 43 F F40-44 1:26:14 590
View 381 Dunn, Stephanie Pottstown PA 40 F F40-44 1:26:14 595
View 382 Crossan, Matthew Hoboken NJ 30 M M30-34 1:26:23 112
View 383 Burkins, Chad Philadelphia PA 37 M Clydesdale 1:26:24 407
View 384 Pizzi, John Philadelphia PA 30 M M30-34 1:26:24 111
View 385 Runkle, Martha Secane PA 24 F Athena 1:26:24 722
View 386 Voss, James Baltimore MD 47 M Clydesdale 1:26:26 386
View 387 Burhop, Jerry Havertown PA 45 M M45-49 Delaware Valley Bicycle Club 1:26:30 275
View 388 Rowland, Matt Doylestown PA 38 M M35-39 1:26:38 193
View 389 Snyder, Kathryn Downingtown PA 52 F Relay 1:26:44 760
View 390 Bellows, Jocelyn Stroudsburg PA 32 F F30-34 1:26:46 526
View 391 Pallozzi, Joseph Quakertown PA 38 M M35-39 1:26:50 137
View 392 Driskell, Jim York PA 51 M Clydesdale 1:26:55 388
View 393 Oehlert, Steve Schwenksville PA 42 M M40-44 1:27:04 206
View 393 Trio, Sherron Downingtown PA 48 F F45-49 Friends of the Riverfront 1:27:00 680
View 394 Meinnert, Trina Denver PA 28 F Athena 1:27:09 728
View 395 Pensak, Michael Hoboken NJ 31 M M30-34 1:27:09 115
View 396 Harvey, Marilyn Wayne PA 49 F F45-49 1:27:13 658
View 397 Schellhorn, Bill Furlong PA 39 M M35-39 1:27:13 155
View 398 Dobratz, Nola Baltimore MD 31 F F30-34 1:27:14 725
View 399 Olson, Eric West Chester PA 45 M Clydesdale 1:27:15 350
View 400 Logue, Eugenie Bryn Mawr PA 40 F F40-44 1:27:16 639
View 401 Mac Gregor, Mike Collegeville PA 43 M M40-44 1:27:20 213
View 402 Doan, Dana King Of Prussia PA 39 F F35-39 1:27:28 557
View 403 Liegeot, David West Chester PA 48 M Clydesdale 1:27:34 405
View 404 Wallick, Stacy Washington DC 32 F F30-34 1:27:36 521
View 405 Duffy, Maria Warrington PA 44 F F40-44 1:27:41 623
View 406 Sullivan, Brian Warrington PA 33 M M30-34 1:27:43 122
View 407 Smiley, Brianne East Stroudsburg PA 29 F F25-29 1:27:45 483
View 408 Burd, Kimberly East Greenville PA 46 F F45-49 1:27:45 648
View 409 Ehling, Rebecca Philadelphia PA 24 F Athena 1:27:53 748
View 410 Quinn, Kyle Dunellen NJ 23 M Clydesdale 1:27:54 361
View 411 Gasser, Rebecca West Chester PA 34 F F30-34 1:27:55 504
View 412 Styer, Tom Malvern PA 39 M M35-39 1:27:58 156
View 413 Cucinotta, Margaret West Chester PA 36 F F35-39 1:27:59 533
View 414 Hartley, Renee Abindon MD 27 F F25-29 1:28:00 458
View 415 Donnelly Relay, Theresa Pottstown PA 38 F Relay 1:28:06 762
View 416 Hatton, Melissa West Chester PA 31 F Athena 1:28:08 729
View 417 Cluver, Henry Media PA 64 M M60-64 High Roads Multisport Club 1:28:10 343
View 418 Mcveigh, Kristen Royersford PA 36 F F35-39 1:28:13 532
View 419 Eisenhart, Elizabeth Philadelphia PA 28 F Athena 1:28:24 744
View 420 Valentino, Jason Spring City PA 33 M Clydesdale 1:28:33 360
View 421 Eckrich, Danielle Hockessin DE 45 F F45-49 KAY Triathlon Club 1:28:41 675
View 422 Mccaughan, Dia Quarryville PA 36 F Athena 1:28:47 730
View 423 Winoski, David Havertown PA 48 M M45-49 1:28:50 290
View 424 Getz, Chris Center Valley PA 55 M M55-59 1:28:55 335
View 425 Phillips, Tom Exton PA 44 M M40-44 1:28:57 210
View 426 Lantzy, Rachael West Conshohocken PA 26 F F25-29 1:28:59 469
View 427 Topp, Elizabeth West Chester PA 46 F F45-49 1:29:03 667
View 428 Blumenfeld, Kristen Downingtown PA 39 F F35-39 1:29:25 554
View 429 Duscha, Kevin Columbia PA 45 M M45-49 1:29:27 281
View 430 Jones, Kiki Chestertown MD 40 F Athena 1:29:32 724
View 431 Monroe, Jennifer Wayne PA 40 F F40-44 High Roads Multisport Club 1:29:32 752
View 432 West, Linda Wilmington DE 50 F F50-54 1:29:32 700
View 433 Dungan, Patty Downingtown PA 42 F F40-44 1:29:37 610
View 434 Rickards, Cyndi Narberth PA 35 F Relay 1:29:37 754
View 435 Farina, Ralph Downingtown PA 56 M M55-59 1:29:38 336
View 436 Sheridan, Erica Dover PA 35 F F35-39 1:29:41 531
View 437 Casey, Michelle Downingtown PA 33 F F30-34 1:29:46 487
View 438 Clarke, Barbara West Chester PA 51 F F50-54 West Chester Cycling Club 1:29:46 694
View 439 Meredith, Buddy Downingtown PA 43 M Clydesdale 1:29:48 390
View 440 Yarnell, Scott Great Falls VA 40 M M40-44 1:29:49 217
View 441 Barber, Craig Allentown PA 55 M M55-59 1:29:49 340
View 442 Cirincione, Becky Aston PA 38 F F35-39 1:29:50 568
View 443 Baur, Karl West Chester PA 36 M Clydesdale 1:29:50 366
View 444 Lisetski, Todd Allentown PA 44 M Clydesdale 1:29:54 370
View 445 Huntowski, Bob Glenside PA 45 M Clydesdale 1:29:56 394
View 446 Kirk, Colleen Chester Springs PA 45 F F45-49 1:29:56 691
View 447 Jones, Tamera West Chester PA 46 F F45-49 1:29:58 666
View 448 Mccartney, Mike Collegeville PA 31 M Clydesdale 1:30:00 375
View 449 Morin, Faye Chadds Ford PA 52 F F50-54 1:30:10 703
View 450 Mingioni, Carolyn West Chester PA 42 F F40-44 1:30:17 629
View 451 Caldwell, Sally Phila. PA 51 F F50-54 1:30:18 702
View 452 Supplee, Bob Downingtown PA 47 M M45-49 1:30:20 273
View 453 Cox, Alissa Lancaster PA 20 F F20-24 1:30:22 429
View 454 Ginaldi, Jules Furlong PA 43 M M40-44 1:30:23 225
View 455 Oates, Kirk Downingtown PA 46 M M45-49 1:30:23 293
View 456 Haralambous, Gus Bensalem PA 34 M M30-34 1:30:27 113
View 457 Lande, Karen West Chester PA 41 F F40-44 1:30:28 626
View 458 Walker, Marissa Radnor PA 30 F F30-34 1:30:29 509
View 459 Mcquaid, David Malvern PA 55 M M55-59 1:30:38 338
View 460 Turner, Jared Newark DE 28 M M25-29 1:30:42 82
View 461 Nickerson, Paige West Chester PA 23 F F20-24 1:30:50 447
View 462 Niness, Claudine Spring City PA 41 F F40-44 1:30:52 604
View 463 Smith, Molly Laurel MD 38 F F35-39 1:31:01 556
View 464 Hagan, Blythe Havertown PA 24 F Athena 1:31:02 727
View 465 Hanson, Peter Wayne PA 54 M M50-54 1:31:14 325
View 466 Lam, Trevor Downingtown PA 23 M Clydesdale 1:31:21 404
View 467 Dempsey, Barbara Newark DE 38 F F35-39 1:31:30 569
View 468 Scolis, Elizabeth Glen Mills PA 48 F F45-49 1:31:33 687
View 469 Fowler, Anne Glen Mills PA 47 F F45-49 1:31:34 657
View 470 Webb, Leeann Oreland PA 33 F F30-34 1:31:36 522
View 471 Klocko, Lee Ann Wyoming PA 39 F F35-39 1:31:39 559
View 472 Wargo, Allie Blandon PA 23 F F20-24 1:31:42 439
View 473 Lenhard, Melissa Wilmington DE 41 F F40-44 1:32:01 631
View 474 Daveler, Molly Lansdale PA 29 F F25-29 1:32:05 456
View 475 Oates, Katherine Downingtown PA 45 F F45-49 1:32:18 679
View 476 Bonner, Lida Malvern PA 38 F F35-39 1:32:24 545
View 477 Odonnell, Joseph Springfield PA 25 M M25-29 1:32:25 70
View 478 Chesky, Tom Phoenixville PA 41 M Clydesdale 1:32:26 392
View 479 Clay, Joseph Upper Darby PA 44 M M40-44 1:32:43 251
View 480 Randell, Darren Downingtown PA 30 M M30-34 1:32:46 133
View 481 Sheridan, Paige Dover PA 14 F F0-19 1:32:55 414
View 482 Burgh, Jessica Philadelphia PA 26 F F25-29 1:32:55 459
View 483 Brady, Jackie Glenmoore PA 47 F F45-49 1:32:59 671
View 484 Jester, Jennifer West Chester PA 34 F F30-34 1:33:13 515
View 485 Milo, Amy Havertown PA 35 F F35-39 1:33:25 553
View 486 Murray, Christopher Wayne PA 32 M M30-34 1:33:27 94
View 487 Petroll, Karin West Chester PA 38 F F35-39 1:33:40 552
View 488 D'ambra, Mary-ann Mount Pocono PA 47 F F45-49 1:33:42 644
View 489 O'connell, Jennifer Reading PA 39 F F35-39 1:33:43 538
View 490 Penderghest, Jaime Abington PA 32 F F30-34 1:34:07 510
View 491 Mattocks, Janelle West Chester PA 35 F F35-39 1:34:11 549
View 492 Johnson-cramer, Michael Lewisburg PA 39 M Clydesdale 1:34:23 385
View 493 Shober, Stacy Stevens PA 44 F F40-44 1:34:29 627
View 494 Murphy, Lisa Downingtown PA 28 F F25-29 1:34:31 474
View 495 Fisher, Nancy Mountainhome PA 55 F F55-59 1:34:45 708
View 496 Cook, Gary Leland NC 52 M M50-54 1:34:48 315
View 497 Albert, Stephanie Boyertown PA 29 F F25-29 1:34:52 465
View 498 Herscher, Charlotte Plymouth Meeting PA 29 F F25-29 1:35:04 461
View 499 Fitch, Grace Ambler PA 26 F F25-29 1:35:26 482
View 500 Chamberlin, Joel Stamford CT 30 M M30-34 1:35:35 109
View 501 Ferrer, Joshua Philadelphia PA 27 M M25-29 1:35:38 51
View 502 Wusinich, Mark Upper Darby PA 41 M Clydesdale 1:35:41 406
View 503 Schueren, Marie Boothwyn PA 44 F F40-44 1:35:42 616
View 504 Loundas, Dana West Chester PA 50 F F50-54 1:35:46 701
View 505 Levy, Robert Philadelphia PA 67 M M65-69 Philadelphia Tri Club 1:35:56 347
View 506 Mahoney, Suzette Willow Grove PA 46 F F45-49 1:35:58 664
View 507 Goggins, Philip Downingtown PA 41 M M40-44 1:36:02 230
View 508 Reynolds, Jennifer Glen Mills PA 39 F F35-39 1:36:11 570
View 509 Sanders, Denice Ft. Washington PA 35 F F35-39 1:36:14 588
View 510 Satterthwaite, Anne Cheyney PA 48 F Athena 1:36:17 732
View 511 Dunn, Tom Pottstown PA 44 M M40-44 1:36:20 209
View 512 Reade, Tara East Stroudsburg PA 33 F F30-34 1:36:22 525
View 513 Brozena, Jenni Dunmore PA 20 F F20-24 1:36:23 448
View 514 Castelgrande, Ivy Conshohocken PA 24 F F20-24 1:36:24 442
View 515 Savini, Susan West Chester PA 43 F F40-44 1:36:31 597
View 516 Heydt, Christa Garnet Valley PA 30 F Athena 1:36:41 741
View 517 Sollenberger, Lorie Malvern PA 41 F F40-44 1:36:47 606
View 518 Plasha, Glenn Spring City PA 43 M Clydesdale 1:36:51 381
View 519 Leyden, Laura Malvern PA 40 F F40-44 1:36:53 603
View 520 Knight, Pamela Doylestown PA 37 F Athena High Roads Multisport Club 1:37:00 733
View 521 Gelsebach, John Quakertown PA 46 M Clydesdale 1:37:04 395
View 522 Shackleford, Margaret Flourtown PA 44 F F40-44 1:37:22 624
View 523 Stratton, Lee Pipersville PA 36 M M35-39 1:37:26 190
View 524 Cook, Cynthia Wilmington DE 55 F F55-59 1:37:29 709
View 525 Rucci, Tara Glenmoore PA 39 F F35-39 1:37:33 586
View 526 Troncoso, Maureen Lancaster PA 41 F F40-44 1:37:40 599
View 527 Detwiler, Jane Wilmington DE 30 F F30-34 1:37:45 507
View 528 Worley, Janine Souderton PA 24 F F20-24 1:37:49 444
View 529 Kelly, Liz Drexel Hill PA 37 F F35-39 1:38:01 566
View 530 Ball, Stephanie Philadelphia PA 37 F F35-39 1:38:04 546
View 531 Empet, Rebecca Downingtown PA 27 F F25-29 1:38:05 479
View 532 Kirk, Tom Chester Springs PA 49 M M45-49 1:38:07 310
View 533 Heimbecker, Meghan Upper Darby PA 30 F F30-34 1:38:08 527
View 534 Vignau, Nancy Blue Bell PA 53 F F50-54 1:38:16 698
View 535 French, Scott Towson MD 39 M Clydesdale 1:38:18 384
View 536 Hains, Rebecca West Chester PA 43 F Athena 1:38:20 740
View 537 Papola, Tony Temple PA 40 M Clydesdale 1:38:32 362
View 538 Formica, Lisa Meadowbrook PA 45 F F45-49 1:38:54 677
View 539 Bugg, Melinda Elkins Park PA 39 F F35-39 1:38:58 751
View 540 Tryon, Cory Kennett Square PA 35 F F35-39 1:38:59 536
View 541 Berne, Douglas Wyomissing PA 47 M Clydesdale 1:39:04 393
View 542 Scott, Bill Accokeek MD 37 M M35-39 1:39:05 134
View 543 Gattone, Annette West Chester PA 48 F F45-49 1:39:05 670
View 544 Richardson, Kelly Malvern PA 39 F F35-39 1:39:05 581
View 545 Langsett, Elizabeth Lancaster PA 20 F F20-24 1:39:11 432
View 546 Dickerson, Katie Glenside PA 21 F Athena 1:39:11 726
View 547 Stotts, Stephanie Newark DE 27 F F25-29 1:39:26 481
View 548 Moeller, Julia Lafayette Hill PA 32 F F30-34 1:39:38 519
View 549 Flaherty, Anne Downingtown PA 44 F F40-44 1:39:39 607
View 550 Goetze, Nicole Abingdon MD 24 F F20-24 1:39:50 435
View 551 Bruns, Terry Allentown PA 44 F F40-44 1:40:03 630
View 552 Graybill, Amy Kennett Square PA 40 F F40-44 1:40:06 641
View 553 Hassler, Todd Reading PA 36 M M35-39 1:40:14 136
View 554 Mckeough, Michael Glenside PA 40 M M40-44 1:40:15 223
View 555 Burke, Betty West Chester PA 58 F F55-59 1:40:20 707
View 556 Meredith, Stacy Downingtown PA 46 F F45-49 1:40:25 651
View 557 Reuther, Christine Wallingford PA 47 F Athena 1:40:26 749
View 558 Blow, Elizabeth Downingtown PA 56 F F55-59 1:40:26 713
View 559 Trafford, Matt Phoenixville PA 48 M Clydesdale 1:40:35 358
View 560 Dinacci, Dina West Chester PA 39 F F35-39 1:40:36 534
View 561 Day, Jonathan Wyomissing PA 67 M M65-69 1:40:40 348
View 562 Martin, Heather Philadelphia PA 24 F F20-24 1:40:54 441
View 563 Drinkwater, David West Chester PA 24 M M20-24 1:41:03 35
View 564 Kelly, Jennifer Conshohocken PA 31 F F30-34 1:41:06 494
View 565 Glasby, John West Chester PA 39 M M35-39 1:41:10 152
View 566 Goines, Scott Pottsville PA 35 M M35-39 1:41:13 153
View 567 Boston, Christopher Westampton NJ 37 M M35-39 1:41:16 187
View 568 Garber, Elizabeth York PA 25 F F25-29 1:41:20 450
View 569 Gunn, Michael Exton PA 33 M Clydesdale 1:41:20 374
View 570 Nygard, Mandy Royersford PA 32 F F30-34 1:41:31 506
View 571 Hutton, Gary Southampton PA 46 M M45-49 1:41:45 287
View 572 Mills, Lucy Garnet Valley PA 43 F F40-44 1:41:48 611
View 573 Macgregor, Joanne Berwyn PA 42 F F40-44 1:41:49 605
View 574 Burke, Susan Clarks Summit PA 41 F F40-44 1:42:14 621
View 575 Breslin, James Montgomeryville PA 31 M M30-34 1:42:19 88
View 576 King, Karen Avondale PA 46 F F45-49 KAY Triathlon Club 1:42:21 681
View 577 Phillips, Jessica Exton PA 42 F F40-44 1:42:26 598
View 578 Connors, Meghan Wayne PA 14 F F0-19 1:42:29 424
View 579 Carroll, Renee West Chester PA 37 F F35-39 1:42:48 562
View 580 Attanasio, Lea Honey Brook PA 52 F F50-54 1:42:49 705
View 581 Dugan, George Glenside PA 44 M Clydesdale 1:42:54 256
View 582 Haslam, Maura Blue Bell PA 37 F F35-39 1:43:04 535
View 583 Votta, Jason West Chester PA 24 M M20-24 1:43:13 36
View 584 Kammar, Craig Towson MD 44 M M40-44 1:43:16 248
View 585 Combs, Patricia Media PA 40 F F40-44 1:43:18 637
View 586 Grier, Ellen Baltimore MD 24 F F20-24 1:43:23 431
View 587 Augustine, Jamie Montoursville PA 33 F Athena 1:43:31 723
View 588 Cutrona, Debbie West Chester PA 47 F F45-49 1:43:42 674
View 589 Joseph, Daniel Chalfont PA 36 M Clydesdale 1:43:43 379
View 590 Downsbrough, Tamara Bellefonte PA 60 F F60-64 1:43:54 716
View 591 Peters, Janice Eagleville PA 62 F F60-64 1:43:55 717
View 592 Rupertus, Stephanie Philadelphia PA 26 F F25-29 1:44:00 484
View 593 Brown-joseph, Belinda Chalfont PA 38 F F35-39 1:44:02 551
View 594 Fortunato, Cheryl West Chester PA 48 F F45-49 1:44:42 665
View 595 Kessler, Kyle Dwoningtown PA 24 M M20-24 1:44:50 22
View 596 Blow, Doug Downingtown PA 55 M M55-59 1:44:55 339
View 597 Cleveland, Ali Downingtown PA 39 F Athena 1:44:58 739
View 598 Angle, Anne Audubon PA 37 F Athena 1:45:01 742
View 599 Lemmy, Teresa Downingtown PA 40 F F40-44 1:45:19 600
View 600 Collier, Bess Philadelphia PA 32 F F30-34 1:45:30 499
View 601 Vanhorn, David Coatesville PA 44 M M40-44 1:45:32 255
View 602 Friel, Mary Phoenixville PA 39 F F35-39 1:45:33 571
View 603 Weaverling, Marie West Chester PA 41 F F40-44 1:45:53 612
View 604 Morrison, Emily Havertown PA 35 F F35-39 1:46:29 561
View 605 Kane, Jessica Hockessin DE 36 F F35-39 KAY Triathlon Club 1:46:31 567
View 606 Maneri, Rachel Wayne PA 14 F F0-19 1:46:38 417
View 607 Potts, John Glenmoore PA 39 M Clydesdale 1:46:53 410
View 608 Bowker, Kim West Chester PA 48 F F45-49 1:47:01 659
View 609 Koresko, Bonnie Radnor PA 51 F F50-54 1:47:40 704
View 610 K, S   25 F F25-29 1:47:43 460
View 611 Gethers, Carol Upper Darby PA 43 F F40-44 1:47:47 632
View 612 Weinstein, Robin Havertown PA 39 F F35-39 1:47:47 563
View 613 Garrison, Ann Warrington PA 49 F Athena 1:48:40 747
View 614 Fowler, Don Glen Mills PA 47 M M45-49 1:49:17 271
View 615 Rowland, Shannon Doylestown PA 40 F F40-44 1:49:18 633
View 616 Rossi, Valerie Perkasie PA 48 F F45-49 1:49:25 655
View 617 Maneri, James Wayne PA 45 M M45-49 1:49:40 286
View 618 Robinson, Jessica Arlington VA 26 F F25-29 1:50:17 463
View 619 Martini, Alex Exton PA 23 M M20-24 1:50:19 20
View 620 Morley, Lucy Souderton PA 28 F F25-29 1:50:21 475
View 621 Gunn, Marjorie Exton PA 34 F Athena 1:50:47 731
View 622 Waitte, Tim Exton PA 38 M M35-39 1:51:29 181
View 623 Brown, Sandy Collingdale PA 39 F Athena Delco Road Runners club 1:51:39 736
View 624 Loiselle, Claire --- F F0-19 1:52:35 426
View 625 Summers, Lois Lancaster PA 58 F F55-59 1:53:20 715
View 626 Rau, Carolyn Bridgeport PA 33 F F30-34 1:53:21 520
View 627 Nixon, Leah Denver PA 19 F Athena 1:53:26 734
View 628 Fenning, Lauren Wynnewood PA 38 F Athena 1:53:54 738
View 629 Santee, Kristen Palmyra NJ 34 F F30-34 1:54:47 500
View 630 Odell, Deborah Chester Springs PA 47 F F45-49 1:54:54 689
View 631 Seeber, Elizabeth Doylestown PA 47 F Athena 1:55:00 735
View 632 O'connor, Frances Baltimore MD 31 F F30-34 1:55:08 511
View 633 Conlan, Chip Green Lane PA 60 M M60-64 1:55:17 345
View 634 Bjork, Michelle Downingtown PA 46 F F45-49 1:55:27 676
View 635 Cavanah, Timothy West Chester PA 29 M Clydesdale 1:55:39 365
View 636 Kabatt, Jennifer Phoenixville PA 36 F F35-39 1:57:34 574
View 637 Clay, Tracy Eliza Philadelphia PA 38 F F35-39 1:58:24 580
View 638 Morley, Russell Souderton PA 30 M M30-34 1:59:33 118
View 639 Kiser, Mary Freeland MD 53 F F50-54 1:59:45 695
View 640 Kain, Anne Bryn Mawr PA 34 F F30-34 2:01:27 498
View 641 Kelly, Chris Conshohocken PA 31 M Clydesdale 2:01:35 400
View 642 Spencer, Suzanne Kintnersville PA 52 F F50-54 2:02:01 699
View 643 Lee, Cheri Yardley PA 48 F F45-49 2:02:32 693
View 644 Watson, Terri Havertwon PA 41 F F40-44 2:03:46 620
View 645 Retzbach, Edward Sewell NJ 53 M Clydesdale 2:04:26 354
View 646 Butera, Rachel Chesapeake City MD 24 F Athena 2:04:51 746
View 647 Kiser, Bryana Freeland MD 19 F F0-19 2:05:45 413
View 648 Kiser, Heidi Freeland MD 24 F F20-24 2:05:45 428
View 649 Fiorilla, Leslie Malvern PA 46 M M45-49 2:06:21 277
View 650 Soley, Mark Quakertown PA 44 M M40-44 2:06:29 226
View 651 Shryock, Debbie Downingtown PA 46 F F45-49 2:06:41 669
View 652 Whittaker, Jennifer Boothwyn PA 26 F Athena 2:08:36 745
View 653 Jones, Lysa West Chester PA 46 F F45-49 2:08:43 645
View 654 Brown, Yvette Garnet Valley PA 49 F F45-49 2:09:37 672
View 655 Overton, Karen Haddon Township NJ 51 F Athena 2:13:43 743
View 656 Brown, Adrienne Garnet Valley PA 17 F F0-19 2:15:37 418
View 657 Collester, Zach --- M M0-19 Team Liberty 10
View 658 Murphy, Sean Baltimore MD 25 M M25-29 79
View 659 Wilpizeski, Bob West Chester PA 51 M M50-54 317